sensor_id;sensor_type;location;lat;lon;timestamp;P1;durP1;ratioP1;P2;durP2;ratioP2
24337;SDS011;12457;50.832;4.346;2024-03-22T00:01:55;50.83;;;29.70;;
24337;SDS011;12457;50.832;4.346;2024-03-22T00:04:21;48.55;;;28.25;;
24337;SDS011;12457;50.832;4.346;2024-03-22T00:06:48;40.60;;;28.92;;
24337;SDS011;12457;50.832;4.346;2024-03-22T00:09:14;57.10;;;29.13;;
24337;SDS011;12457;50.832;4.346;2024-03-22T00:11:41;43.33;;;28.38;;
24337;SDS011;12457;50.832;4.346;2024-03-22T00:14:08;47.78;;;27.85;;
24337;SDS011;12457;50.832;4.346;2024-03-22T00:16:35;48.08;;;28.42;;
24337;SDS011;12457;50.832;4.346;2024-03-22T00:19:01;50.47;;;29.23;;
24337;SDS011;12457;50.832;4.346;2024-03-22T00:21:27;45.95;;;28.45;;
24337;SDS011;12457;50.832;4.346;2024-03-22T00:23:54;46.40;;;28.30;;
24337;SDS011;12457;50.832;4.346;2024-03-22T00:26:20;49.28;;;28.85;;
24337;SDS011;12457;50.832;4.346;2024-03-22T00:28:48;47.28;;;27.25;;
24337;SDS011;12457;50.832;4.346;2024-03-22T00:31:14;49.90;;;28.25;;
24337;SDS011;12457;50.832;4.346;2024-03-22T00:33:40;51.15;;;29.73;;
24337;SDS011;12457;50.832;4.346;2024-03-22T00:36:06;46.53;;;28.13;;
24337;SDS011;12457;50.832;4.346;2024-03-22T00:38:32;42.88;;;28.80;;
24337;SDS011;12457;50.832;4.346;2024-03-22T00:40:58;44.33;;;28.42;;
24337;SDS011;12457;50.832;4.346;2024-03-22T00:43:24;47.72;;;28.83;;
24337;SDS011;12457;50.832;4.346;2024-03-22T00:45:49;43.65;;;28.75;;
24337;SDS011;12457;50.832;4.346;2024-03-22T00:48:15;48.40;;;27.92;;
24337;SDS011;12457;50.832;4.346;2024-03-22T00:50:41;44.92;;;29.08;;
24337;SDS011;12457;50.832;4.346;2024-03-22T00:53:07;48.63;;;28.42;;
24337;SDS011;12457;50.832;4.346;2024-03-22T00:55:33;40.75;;;27.90;;
24337;SDS011;12457;50.832;4.346;2024-03-22T00:58:00;43.78;;;28.65;;
24337;SDS011;12457;50.832;4.346;2024-03-22T01:00:25;47.28;;;29.65;;
24337;SDS011;12457;50.832;4.346;2024-03-22T01:02:51;46.35;;;28.80;;
24337;SDS011;12457;50.832;4.346;2024-03-22T01:05:17;48.58;;;30.08;;
24337;SDS011;12457;50.832;4.346;2024-03-22T01:07:43;47.30;;;29.08;;
24337;SDS011;12457;50.832;4.346;2024-03-22T01:10:09;53.47;;;29.35;;
24337;SDS011;12457;50.832;4.346;2024-03-22T01:15:21;53.08;;;31.23;;
24337;SDS011;12457;50.832;4.346;2024-03-22T01:17:47;51.75;;;31.52;;
24337;SDS011;12457;50.832;4.346;2024-03-22T01:20:13;48.83;;;29.83;;
24337;SDS011;12457;50.832;4.346;2024-03-22T01:22:39;49.40;;;29.63;;
24337;SDS011;12457;50.832;4.346;2024-03-22T01:25:05;56.63;;;32.65;;
24337;SDS011;12457;50.832;4.346;2024-03-22T01:27:31;54.80;;;32.78;;
24337;SDS011;12457;50.832;4.346;2024-03-22T01:29:57;52.05;;;31.55;;
24337;SDS011;12457;50.832;4.346;2024-03-22T01:32:22;51.92;;;30.65;;
24337;SDS011;12457;50.832;4.346;2024-03-22T01:34:48;49.83;;;30.38;;
24337;SDS011;12457;50.832;4.346;2024-03-22T01:37:15;54.42;;;32.67;;
24337;SDS011;12457;50.832;4.346;2024-03-22T01:39:40;50.50;;;29.73;;
24337;SDS011;12457;50.832;4.346;2024-03-22T01:42:06;50.42;;;30.20;;
24337;SDS011;12457;50.832;4.346;2024-03-22T01:44:32;51.42;;;31.63;;
24337;SDS011;12457;50.832;4.346;2024-03-22T01:46:59;53.35;;;31.55;;
24337;SDS011;12457;50.832;4.346;2024-03-22T01:49:26;56.40;;;31.55;;
24337;SDS011;12457;50.832;4.346;2024-03-22T01:51:52;58.67;;;31.17;;
24337;SDS011;12457;50.832;4.346;2024-03-22T01:54:19;50.95;;;31.17;;
24337;SDS011;12457;50.832;4.346;2024-03-22T01:56:45;50.38;;;30.67;;
24337;SDS011;12457;50.832;4.346;2024-03-22T01:59:21;55.42;;;30.52;;
24337;SDS011;12457;50.832;4.346;2024-03-22T02:01:47;55.97;;;30.90;;
24337;SDS011;12457;50.832;4.346;2024-03-22T02:04:14;51.03;;;30.50;;
24337;SDS011;12457;50.832;4.346;2024-03-22T02:06:40;55.42;;;31.33;;
24337;SDS011;12457;50.832;4.346;2024-03-22T02:09:05;51.75;;;31.92;;
24337;SDS011;12457;50.832;4.346;2024-03-22T02:11:34;56.42;;;32.58;;
24337;SDS011;12457;50.832;4.346;2024-03-22T02:14:01;52.70;;;33.25;;
24337;SDS011;12457;50.832;4.346;2024-03-22T02:16:29;57.80;;;33.22;;
24337;SDS011;12457;50.832;4.346;2024-03-22T02:18:55;56.80;;;32.67;;
24337;SDS011;12457;50.832;4.346;2024-03-22T02:21:20;53.15;;;31.55;;
24337;SDS011;12457;50.832;4.346;2024-03-22T02:23:46;55.50;;;31.80;;
24337;SDS011;12457;50.832;4.346;2024-03-22T02:26:12;50.33;;;31.90;;
24337;SDS011;12457;50.832;4.346;2024-03-22T02:28:50;55.58;;;31.80;;
24337;SDS011;12457;50.832;4.346;2024-03-22T02:31:15;54.17;;;31.65;;
24337;SDS011;12457;50.832;4.346;2024-03-22T02:33:41;49.47;;;29.85;;
24337;SDS011;12457;50.832;4.346;2024-03-22T02:36:07;47.95;;;30.33;;
24337;SDS011;12457;50.832;4.346;2024-03-22T02:38:33;50.75;;;31.98;;
24337;SDS011;12457;50.832;4.346;2024-03-22T02:40:59;53.30;;;29.20;;
24337;SDS011;12457;50.832;4.346;2024-03-22T02:46:33;47.40;;;28.20;;
24337;SDS011;12457;50.832;4.346;2024-03-22T02:48:59;52.25;;;28.38;;
24337;SDS011;12457;50.832;4.346;2024-03-22T02:51:25;50.30;;;28.73;;
24337;SDS011;12457;50.832;4.346;2024-03-22T02:53:51;51.63;;;28.30;;
24337;SDS011;12457;50.832;4.346;2024-03-22T02:56:17;47.42;;;27.98;;
24337;SDS011;12457;50.832;4.346;2024-03-22T02:58:44;44.67;;;27.35;;
24337;SDS011;12457;50.832;4.346;2024-03-22T03:01:09;42.63;;;26.45;;
24337;SDS011;12457;50.832;4.346;2024-03-22T03:03:35;49.70;;;28.08;;
24337;SDS011;12457;50.832;4.346;2024-03-22T03:06:01;46.80;;;28.13;;
24337;SDS011;12457;50.832;4.346;2024-03-22T03:08:26;44.13;;;26.75;;
24337;SDS011;12457;50.832;4.346;2024-03-22T03:10:52;46.03;;;27.75;;
24337;SDS011;12457;50.832;4.346;2024-03-22T03:13:18;39.17;;;25.58;;
24337;SDS011;12457;50.832;4.346;2024-03-22T03:15:45;43.28;;;26.33;;
24337;SDS011;12457;50.832;4.346;2024-03-22T03:18:11;43.00;;;25.75;;
24337;SDS011;12457;50.832;4.346;2024-03-22T03:20:36;42.05;;;24.70;;
24337;SDS011;12457;50.832;4.346;2024-03-22T03:23:02;38.08;;;24.98;;
24337;SDS011;12457;50.832;4.346;2024-03-22T03:25:29;40.40;;;23.58;;
24337;SDS011;12457;50.832;4.346;2024-03-22T03:27:54;40.78;;;23.05;;
24337;SDS011;12457;50.832;4.346;2024-03-22T03:30:20;43.92;;;23.92;;
24337;SDS011;12457;50.832;4.346;2024-03-22T03:32:46;39.92;;;23.42;;
24337;SDS011;12457;50.832;4.346;2024-03-22T03:35:12;45.58;;;24.42;;
24337;SDS011;12457;50.832;4.346;2024-03-22T03:37:37;48.00;;;24.45;;
24337;SDS011;12457;50.832;4.346;2024-03-22T03:40:03;42.05;;;23.75;;
24337;SDS011;12457;50.832;4.346;2024-03-22T03:42:29;38.03;;;24.33;;
24337;SDS011;12457;50.832;4.346;2024-03-22T03:44:55;39.33;;;22.52;;
24337;SDS011;12457;50.832;4.346;2024-03-22T03:47:20;40.65;;;22.73;;
24337;SDS011;12457;50.832;4.346;2024-03-22T03:49:46;40.13;;;23.00;;
24337;SDS011;12457;50.832;4.346;2024-03-22T03:52:12;39.15;;;21.85;;
24337;SDS011;12457;50.832;4.346;2024-03-22T03:54:40;36.03;;;22.48;;
24337;SDS011;12457;50.832;4.346;2024-03-22T03:57:05;38.15;;;22.50;;
24337;SDS011;12457;50.832;4.346;2024-03-22T03:59:31;37.50;;;22.02;;
24337;SDS011;12457;50.832;4.346;2024-03-22T04:01:58;33.28;;;20.83;;
24337;SDS011;12457;50.832;4.346;2024-03-22T04:04:24;34.78;;;21.20;;
24337;SDS011;12457;50.832;4.346;2024-03-22T04:06:50;42.65;;;22.15;;
24337;SDS011;12457;50.832;4.346;2024-03-22T04:09:15;44.58;;;21.40;;
24337;SDS011;12457;50.832;4.346;2024-03-22T04:11:41;30.50;;;19.33;;
24337;SDS011;12457;50.832;4.346;2024-03-22T04:14:09;37.55;;;20.08;;
24337;SDS011;12457;50.832;4.346;2024-03-22T04:16:34;33.45;;;20.55;;
24337;SDS011;12457;50.832;4.346;2024-03-22T04:19:00;34.25;;;19.85;;
24337;SDS011;12457;50.832;4.346;2024-03-22T04:21:26;31.98;;;20.02;;
24337;SDS011;12457;50.832;4.346;2024-03-22T04:23:51;34.30;;;19.95;;
24337;SDS011;12457;50.832;4.346;2024-03-22T04:26:17;30.77;;;19.25;;
24337;SDS011;12457;50.832;4.346;2024-03-22T04:29:01;34.55;;;20.15;;
24337;SDS011;12457;50.832;4.346;2024-03-22T04:31:27;32.45;;;18.73;;
24337;SDS011;12457;50.832;4.346;2024-03-22T04:33:52;31.90;;;19.40;;
24337;SDS011;12457;50.832;4.346;2024-03-22T04:36:18;34.08;;;18.55;;
24337;SDS011;12457;50.832;4.346;2024-03-22T04:38:44;36.15;;;19.23;;
24337;SDS011;12457;50.832;4.346;2024-03-22T04:41:09;31.00;;;17.83;;
24337;SDS011;12457;50.832;4.346;2024-03-22T04:43:35;35.72;;;17.77;;
24337;SDS011;12457;50.832;4.346;2024-03-22T04:46:01;29.77;;;17.23;;
24337;SDS011;12457;50.832;4.346;2024-03-22T04:48:26;31.15;;;18.40;;
24337;SDS011;12457;50.832;4.346;2024-03-22T04:50:52;30.45;;;17.13;;
24337;SDS011;12457;50.832;4.346;2024-03-22T04:53:19;31.50;;;18.73;;
24337;SDS011;12457;50.832;4.346;2024-03-22T04:55:48;28.98;;;17.40;;
24337;SDS011;12457;50.832;4.346;2024-03-22T04:58:15;33.38;;;18.33;;
24337;SDS011;12457;50.832;4.346;2024-03-22T05:00:46;33.20;;;18.33;;
24337;SDS011;12457;50.832;4.346;2024-03-22T05:03:13;31.17;;;18.77;;
24337;SDS011;12457;50.832;4.346;2024-03-22T05:05:41;29.15;;;17.63;;
24337;SDS011;12457;50.832;4.346;2024-03-22T05:08:08;31.15;;;19.55;;
24337;SDS011;12457;50.832;4.346;2024-03-22T05:10:34;37.33;;;19.65;;
24337;SDS011;12457;50.832;4.346;2024-03-22T05:13:00;30.85;;;18.17;;
24337;SDS011;12457;50.832;4.346;2024-03-22T05:15:44;33.63;;;18.88;;
24337;SDS011;12457;50.832;4.346;2024-03-22T05:18:10;33.63;;;19.10;;
24337;SDS011;12457;50.832;4.346;2024-03-22T05:20:36;32.00;;;17.70;;
24337;SDS011;12457;50.832;4.346;2024-03-22T05:23:01;27.63;;;17.42;;
24337;SDS011;12457;50.832;4.346;2024-03-22T05:25:27;30.45;;;18.17;;
24337;SDS011;12457;50.832;4.346;2024-03-22T05:27:53;32.45;;;17.30;;
24337;SDS011;12457;50.832;4.346;2024-03-22T05:30:19;25.70;;;16.15;;
24337;SDS011;12457;50.832;4.346;2024-03-22T05:32:44;32.63;;;16.77;;
24337;SDS011;12457;50.832;4.346;2024-03-22T05:35:10;34.08;;;16.80;;
24337;SDS011;12457;50.832;4.346;2024-03-22T05:37:37;24.98;;;16.85;;
24337;SDS011;12457;50.832;4.346;2024-03-22T05:40:03;31.95;;;15.65;;
24337;SDS011;12457;50.832;4.346;2024-03-22T05:42:30;32.05;;;17.23;;
24337;SDS011;12457;50.832;4.346;2024-03-22T05:44:55;35.10;;;17.10;;
24337;SDS011;12457;50.832;4.346;2024-03-22T05:47:21;30.15;;;16.63;;
24337;SDS011;12457;50.832;4.346;2024-03-22T05:49:47;30.20;;;16.73;;
24337;SDS011;12457;50.832;4.346;2024-03-22T05:52:13;25.63;;;17.08;;
24337;SDS011;12457;50.832;4.346;2024-03-22T05:54:39;26.35;;;16.58;;
24337;SDS011;12457;50.832;4.346;2024-03-22T05:57:05;28.40;;;17.13;;
24337;SDS011;12457;50.832;4.346;2024-03-22T05:59:32;26.80;;;17.27;;
24337;SDS011;12457;50.832;4.346;2024-03-22T06:01:57;28.70;;;17.55;;
24337;SDS011;12457;50.832;4.346;2024-03-22T06:04:23;28.15;;;17.48;;
24337;SDS011;12457;50.832;4.346;2024-03-22T06:06:49;29.67;;;18.25;;
24337;SDS011;12457;50.832;4.346;2024-03-22T06:09:15;26.98;;;17.20;;
24337;SDS011;12457;50.832;4.346;2024-03-22T06:11:49;27.88;;;17.08;;
24337;SDS011;12457;50.832;4.346;2024-03-22T06:14:24;34.40;;;17.30;;
24337;SDS011;12457;50.832;4.346;2024-03-22T06:16:50;28.63;;;17.40;;
24337;SDS011;12457;50.832;4.346;2024-03-22T06:19:15;27.88;;;18.20;;
24337;SDS011;12457;50.832;4.346;2024-03-22T06:21:41;34.10;;;19.10;;
24337;SDS011;12457;50.832;4.346;2024-03-22T06:24:10;37.78;;;18.25;;
24337;SDS011;12457;50.832;4.346;2024-03-22T06:26:36;34.33;;;19.33;;
24337;SDS011;12457;50.832;4.346;2024-03-22T06:29:04;36.72;;;19.70;;
24337;SDS011;12457;50.832;4.346;2024-03-22T06:31:30;33.90;;;18.73;;
24337;SDS011;12457;50.832;4.346;2024-03-22T06:33:56;35.67;;;19.90;;
24337;SDS011;12457;50.832;4.346;2024-03-22T06:36:27;38.65;;;19.80;;
24337;SDS011;12457;50.832;4.346;2024-03-22T06:38:57;37.30;;;19.05;;
24337;SDS011;12457;50.832;4.346;2024-03-22T06:41:24;38.05;;;19.65;;
24337;SDS011;12457;50.832;4.346;2024-03-22T06:43:51;29.83;;;17.73;;
24337;SDS011;12457;50.832;4.346;2024-03-22T06:46:18;28.77;;;17.98;;
24337;SDS011;12457;50.832;4.346;2024-03-22T06:48:45;30.67;;;17.40;;
24337;SDS011;12457;50.832;4.346;2024-03-22T06:51:11;28.73;;;17.00;;
24337;SDS011;12457;50.832;4.346;2024-03-22T06:53:38;31.83;;;16.35;;
24337;SDS011;12457;50.832;4.346;2024-03-22T06:56:04;31.63;;;17.63;;
24337;SDS011;12457;50.832;4.346;2024-03-22T06:58:30;30.15;;;18.58;;
24337;SDS011;12457;50.832;4.346;2024-03-22T07:01:01;30.17;;;18.00;;
24337;SDS011;12457;50.832;4.346;2024-03-22T07:03:27;33.10;;;20.08;;
24337;SDS011;12457;50.832;4.346;2024-03-22T07:05:53;28.10;;;16.88;;
24337;SDS011;12457;50.832;4.346;2024-03-22T07:08:18;27.30;;;17.00;;
24337;SDS011;12457;50.832;4.346;2024-03-22T07:10:44;28.35;;;16.80;;
24337;SDS011;12457;50.832;4.346;2024-03-22T07:13:11;26.20;;;15.55;;
24337;SDS011;12457;50.832;4.346;2024-03-22T07:15:52;31.40;;;16.58;;
24337;SDS011;12457;50.832;4.346;2024-03-22T07:18:17;29.85;;;18.90;;
24337;SDS011;12457;50.832;4.346;2024-03-22T07:20:44;33.67;;;19.05;;
24337;SDS011;12457;50.832;4.346;2024-03-22T07:23:10;46.17;;;27.05;;
24337;SDS011;12457;50.832;4.346;2024-03-22T07:25:37;38.53;;;20.48;;
24337;SDS011;12457;50.832;4.346;2024-03-22T07:28:02;73.50;;;31.33;;
24337;SDS011;12457;50.832;4.346;2024-03-22T07:30:30;33.55;;;18.08;;
24337;SDS011;12457;50.832;4.346;2024-03-22T07:32:55;34.03;;;17.25;;
24337;SDS011;12457;50.832;4.346;2024-03-22T07:35:21;32.05;;;17.65;;
24337;SDS011;12457;50.832;4.346;2024-03-22T07:37:47;31.33;;;16.30;;
24337;SDS011;12457;50.832;4.346;2024-03-22T07:40:13;28.63;;;15.70;;
24337;SDS011;12457;50.832;4.346;2024-03-22T07:42:38;29.65;;;17.67;;
24337;SDS011;12457;50.832;4.346;2024-03-22T07:45:04;30.17;;;16.10;;
24337;SDS011;12457;50.832;4.346;2024-03-22T07:47:33;38.45;;;19.73;;
24337;SDS011;12457;50.832;4.346;2024-03-22T07:49:59;26.85;;;14.10;;
24337;SDS011;12457;50.832;4.346;2024-03-22T07:52:25;24.65;;;14.57;;
24337;SDS011;12457;50.832;4.346;2024-03-22T07:54:50;25.80;;;15.05;;
24337;SDS011;12457;50.832;4.346;2024-03-22T07:57:17;24.90;;;13.80;;
24337;SDS011;12457;50.832;4.346;2024-03-22T07:59:42;30.48;;;18.13;;
24337;SDS011;12457;50.832;4.346;2024-03-22T08:02:09;29.13;;;16.73;;
24337;SDS011;12457;50.832;4.346;2024-03-22T08:04:35;25.58;;;13.90;;
24337;SDS011;12457;50.832;4.346;2024-03-22T08:07:01;20.83;;;12.85;;
24337;SDS011;12457;50.832;4.346;2024-03-22T08:09:26;23.92;;;13.02;;
24337;SDS011;12457;50.832;4.346;2024-03-22T08:11:52;21.52;;;12.95;;
24337;SDS011;12457;50.832;4.346;2024-03-22T08:14:18;41.22;;;17.08;;
24337;SDS011;12457;50.832;4.346;2024-03-22T08:16:43;27.13;;;13.35;;
24337;SDS011;12457;50.832;4.346;2024-03-22T08:19:09;26.60;;;13.55;;
24337;SDS011;12457;50.832;4.346;2024-03-22T08:21:35;25.27;;;14.32;;
24337;SDS011;12457;50.832;4.346;2024-03-22T08:24:01;25.02;;;15.55;;
24337;SDS011;12457;50.832;4.346;2024-03-22T08:26:27;30.55;;;20.42;;
24337;SDS011;12457;50.832;4.346;2024-03-22T08:28:53;43.28;;;25.17;;
24337;SDS011;12457;50.832;4.346;2024-03-22T08:31:19;33.40;;;20.27;;
24337;SDS011;12457;50.832;4.346;2024-03-22T08:33:53;28.52;;;18.75;;
24337;SDS011;12457;50.832;4.346;2024-03-22T08:36:21;31.77;;;18.92;;
24337;SDS011;12457;50.832;4.346;2024-03-22T08:38:47;29.83;;;18.23;;
24337;SDS011;12457;50.832;4.346;2024-03-22T08:41:13;29.27;;;19.15;;
24337;SDS011;12457;50.832;4.346;2024-03-22T08:43:39;27.20;;;16.67;;
24337;SDS011;12457;50.832;4.346;2024-03-22T08:46:10;35.97;;;24.08;;
24337;SDS011;12457;50.832;4.346;2024-03-22T08:48:36;34.42;;;21.23;;
24337;SDS011;12457;50.832;4.346;2024-03-22T08:51:03;42.75;;;25.67;;
24337;SDS011;12457;50.832;4.346;2024-03-22T08:53:30;35.65;;;19.98;;
24337;SDS011;12457;50.832;4.346;2024-03-22T08:55:56;26.48;;;15.90;;
24337;SDS011;12457;50.832;4.346;2024-03-22T08:58:23;23.02;;;15.43;;
24337;SDS011;12457;50.832;4.346;2024-03-22T09:00:48;25.58;;;15.63;;
24337;SDS011;12457;50.832;4.346;2024-03-22T09:03:14;21.95;;;14.73;;
24337;SDS011;12457;50.832;4.346;2024-03-22T09:05:40;29.55;;;16.70;;
24337;SDS011;12457;50.832;4.346;2024-03-22T09:08:06;23.52;;;15.27;;
24337;SDS011;12457;50.832;4.346;2024-03-22T09:10:32;26.17;;;14.95;;
24337;SDS011;12457;50.832;4.346;2024-03-22T09:12:58;24.45;;;15.35;;
24337;SDS011;12457;50.832;4.346;2024-03-22T09:15:24;23.38;;;14.57;;
24337;SDS011;12457;50.832;4.346;2024-03-22T09:17:51;25.67;;;14.85;;
24337;SDS011;12457;50.832;4.346;2024-03-22T09:20:17;27.70;;;15.82;;
24337;SDS011;12457;50.832;4.346;2024-03-22T09:22:43;23.65;;;15.60;;
24337;SDS011;12457;50.832;4.346;2024-03-22T09:25:09;27.13;;;16.52;;
24337;SDS011;12457;50.832;4.346;2024-03-22T09:27:35;22.52;;;15.38;;
24337;SDS011;12457;50.832;4.346;2024-03-22T09:30:00;22.33;;;14.45;;
24337;SDS011;12457;50.832;4.346;2024-03-22T09:32:29;26.98;;;14.90;;
24337;SDS011;12457;50.832;4.346;2024-03-22T09:34:55;27.15;;;15.00;;
24337;SDS011;12457;50.832;4.346;2024-03-22T09:37:21;25.00;;;14.48;;
24337;SDS011;12457;50.832;4.346;2024-03-22T09:39:46;25.85;;;15.75;;
24337;SDS011;12457;50.832;4.346;2024-03-22T09:42:22;25.75;;;14.38;;
24337;SDS011;12457;50.832;4.346;2024-03-22T09:44:50;24.70;;;14.35;;
24337;SDS011;12457;50.832;4.346;2024-03-22T09:47:19;25.33;;;14.80;;
24337;SDS011;12457;50.832;4.346;2024-03-22T09:49:48;24.27;;;15.07;;
24337;SDS011;12457;50.832;4.346;2024-03-22T09:52:14;24.40;;;13.93;;
24337;SDS011;12457;50.832;4.346;2024-03-22T09:54:44;21.10;;;14.25;;
24337;SDS011;12457;50.832;4.346;2024-03-22T09:57:11;25.17;;;15.57;;
24337;SDS011;12457;50.832;4.346;2024-03-22T09:59:41;27.92;;;15.07;;
24337;SDS011;12457;50.832;4.346;2024-03-22T10:02:08;22.25;;;13.90;;
24337;SDS011;12457;50.832;4.346;2024-03-22T10:04:37;22.80;;;14.32;;
24337;SDS011;12457;50.832;4.346;2024-03-22T10:07:03;24.92;;;14.65;;
24337;SDS011;12457;50.832;4.346;2024-03-22T10:09:29;26.65;;;16.30;;
24337;SDS011;12457;50.832;4.346;2024-03-22T10:11:56;27.60;;;14.68;;
24337;SDS011;12457;50.832;4.346;2024-03-22T10:14:22;31.35;;;20.15;;
24337;SDS011;12457;50.832;4.346;2024-03-22T10:16:52;26.45;;;14.07;;
24337;SDS011;12457;50.832;4.346;2024-03-22T10:19:21;29.60;;;16.30;;
24337;SDS011;12457;50.832;4.346;2024-03-22T10:22:00;27.25;;;15.20;;
24337;SDS011;12457;50.832;4.346;2024-03-22T10:24:26;30.65;;;17.13;;
24337;SDS011;12457;50.832;4.346;2024-03-22T10:26:53;22.13;;;14.35;;
24337;SDS011;12457;50.832;4.346;2024-03-22T10:29:19;24.70;;;14.65;;
24337;SDS011;12457;50.832;4.346;2024-03-22T10:31:51;22.52;;;14.40;;
24337;SDS011;12457;50.832;4.346;2024-03-22T10:34:18;31.67;;;19.45;;
24337;SDS011;12457;50.832;4.346;2024-03-22T10:36:46;24.05;;;16.33;;
24337;SDS011;12457;50.832;4.346;2024-03-22T10:39:13;26.92;;;15.50;;
24337;SDS011;12457;50.832;4.346;2024-03-22T10:41:46;40.25;;;23.27;;
24337;SDS011;12457;50.832;4.346;2024-03-22T10:44:13;22.35;;;14.77;;
24337;SDS011;12457;50.832;4.346;2024-03-22T10:46:45;28.45;;;15.65;;
24337;SDS011;12457;50.832;4.346;2024-03-22T10:49:16;28.25;;;15.60;;
24337;SDS011;12457;50.832;4.346;2024-03-22T10:51:54;24.30;;;15.32;;
24337;SDS011;12457;50.832;4.346;2024-03-22T10:54:28;24.40;;;14.98;;
24337;SDS011;12457;50.832;4.346;2024-03-22T10:56:59;31.45;;;15.43;;
24337;SDS011;12457;50.832;4.346;2024-03-22T10:59:25;29.25;;;16.67;;
24337;SDS011;12457;50.832;4.346;2024-03-22T11:02:02;26.52;;;14.27;;
24337;SDS011;12457;50.832;4.346;2024-03-22T11:04:32;24.13;;;15.65;;
24337;SDS011;12457;50.832;4.346;2024-03-22T11:06:58;22.75;;;13.93;;
24337;SDS011;12457;50.832;4.346;2024-03-22T11:09:27;23.80;;;17.23;;
24337;SDS011;12457;50.832;4.346;2024-03-22T11:11:53;22.73;;;13.48;;
24337;SDS011;12457;50.832;4.346;2024-03-22T11:14:20;27.98;;;18.65;;
24337;SDS011;12457;50.832;4.346;2024-03-22T11:16:47;21.15;;;14.80;;
24337;SDS011;12457;50.832;4.346;2024-03-22T11:19:12;28.15;;;16.15;;
24337;SDS011;12457;50.832;4.346;2024-03-22T11:21:38;22.05;;;12.32;;
24337;SDS011;12457;50.832;4.346;2024-03-22T11:24:04;26.63;;;12.95;;
24337;SDS011;12457;50.832;4.346;2024-03-22T11:26:31;21.70;;;12.77;;
24337;SDS011;12457;50.832;4.346;2024-03-22T11:29:00;25.92;;;15.38;;
24337;SDS011;12457;50.832;4.346;2024-03-22T11:31:27;24.27;;;13.15;;
24337;SDS011;12457;50.832;4.346;2024-03-22T11:33:53;23.08;;;13.50;;
24337;SDS011;12457;50.832;4.346;2024-03-22T11:36:19;23.35;;;13.23;;
24337;SDS011;12457;50.832;4.346;2024-03-22T11:38:46;25.25;;;13.73;;
24337;SDS011;12457;50.832;4.346;2024-03-22T11:41:17;30.15;;;15.68;;
24337;SDS011;12457;50.832;4.346;2024-03-22T11:43:46;26.15;;;13.38;;
24337;SDS011;12457;50.832;4.346;2024-03-22T11:46:14;24.27;;;12.80;;
24337;SDS011;12457;50.832;4.346;2024-03-22T11:48:40;20.38;;;13.02;;
24337;SDS011;12457;50.832;4.346;2024-03-22T11:51:09;27.00;;;13.50;;
24337;SDS011;12457;50.832;4.346;2024-03-22T11:53:35;19.88;;;13.32;;
24337;SDS011;12457;50.832;4.346;2024-03-22T11:56:03;28.88;;;13.27;;
24337;SDS011;12457;50.832;4.346;2024-03-22T11:58:29;24.52;;;13.70;;
24337;SDS011;12457;50.832;4.346;2024-03-22T12:00:58;24.55;;;13.43;;
24337;SDS011;12457;50.832;4.346;2024-03-22T12:03:38;27.05;;;13.52;;
24337;SDS011;12457;50.832;4.346;2024-03-22T12:06:05;27.85;;;13.75;;
24337;SDS011;12457;50.832;4.346;2024-03-22T12:08:31;26.33;;;14.43;;
24337;SDS011;12457;50.832;4.346;2024-03-22T12:10:57;27.15;;;13.85;;
24337;SDS011;12457;50.832;4.346;2024-03-22T12:13:22;30.60;;;15.18;;
24337;SDS011;12457;50.832;4.346;2024-03-22T12:15:48;22.80;;;14.13;;
24337;SDS011;12457;50.832;4.346;2024-03-22T12:18:15;22.10;;;13.50;;
24337;SDS011;12457;50.832;4.346;2024-03-22T12:20:41;23.85;;;12.45;;
24337;SDS011;12457;50.832;4.346;2024-03-22T12:23:07;19.00;;;11.82;;
24337;SDS011;12457;50.832;4.346;2024-03-22T12:25:33;24.95;;;13.38;;
24337;SDS011;12457;50.832;4.346;2024-03-22T12:27:58;24.77;;;12.85;;
24337;SDS011;12457;50.832;4.346;2024-03-22T12:30:24;23.17;;;13.30;;
24337;SDS011;12457;50.832;4.346;2024-03-22T12:32:51;25.83;;;12.32;;
24337;SDS011;12457;50.832;4.346;2024-03-22T12:35:17;27.02;;;12.15;;
24337;SDS011;12457;50.832;4.346;2024-03-22T12:37:42;21.02;;;10.98;;
24337;SDS011;12457;50.832;4.346;2024-03-22T12:40:09;25.10;;;10.25;;
24337;SDS011;12457;50.832;4.346;2024-03-22T12:42:36;19.50;;;10.27;;
24337;SDS011;12457;50.832;4.346;2024-03-22T12:45:03;24.20;;;10.25;;
24337;SDS011;12457;50.832;4.346;2024-03-22T12:47:29;20.58;;;10.13;;
24337;SDS011;12457;50.832;4.346;2024-03-22T12:49:55;17.75;;;9.60;;
24337;SDS011;12457;50.832;4.346;2024-03-22T12:52:21;21.95;;;9.60;;
24337;SDS011;12457;50.832;4.346;2024-03-22T12:54:47;25.02;;;10.35;;
24337;SDS011;12457;50.832;4.346;2024-03-22T12:57:12;22.13;;;9.80;;
24337;SDS011;12457;50.832;4.346;2024-03-22T12:59:38;21.73;;;9.60;;
24337;SDS011;12457;50.832;4.346;2024-03-22T13:02:05;27.17;;;11.38;;
24337;SDS011;12457;50.832;4.346;2024-03-22T13:04:32;28.98;;;10.43;;
24337;SDS011;12457;50.832;4.346;2024-03-22T13:06:58;23.20;;;9.27;;
24337;SDS011;12457;50.832;4.346;2024-03-22T13:09:24;24.13;;;9.77;;
24337;SDS011;12457;50.832;4.346;2024-03-22T13:11:49;20.60;;;8.38;;
24337;SDS011;12457;50.832;4.346;2024-03-22T13:14:15;20.58;;;8.63;;
24337;SDS011;12457;50.832;4.346;2024-03-22T13:16:41;20.38;;;8.40;;
24337;SDS011;12457;50.832;4.346;2024-03-22T13:19:07;15.75;;;7.47;;
24337;SDS011;12457;50.832;4.346;2024-03-22T13:21:37;23.05;;;7.90;;
24337;SDS011;12457;50.832;4.346;2024-03-22T13:24:03;18.13;;;8.75;;
24337;SDS011;12457;50.832;4.346;2024-03-22T13:26:29;19.65;;;8.15;;
24337;SDS011;12457;50.832;4.346;2024-03-22T13:28:55;22.25;;;8.38;;
24337;SDS011;12457;50.832;4.346;2024-03-22T13:31:21;16.38;;;8.05;;
24337;SDS011;12457;50.832;4.346;2024-03-22T13:33:49;18.70;;;8.25;;
24337;SDS011;12457;50.832;4.346;2024-03-22T13:36:15;17.25;;;7.90;;
24337;SDS011;12457;50.832;4.346;2024-03-22T13:38:43;25.17;;;8.43;;
24337;SDS011;12457;50.832;4.346;2024-03-22T13:41:09;20.75;;;9.00;;
24337;SDS011;12457;50.832;4.346;2024-03-22T13:43:35;19.02;;;8.45;;
24337;SDS011;12457;50.832;4.346;2024-03-22T13:46:02;18.15;;;8.73;;
24337;SDS011;12457;50.832;4.346;2024-03-22T13:48:28;31.15;;;9.45;;
24337;SDS011;12457;50.832;4.346;2024-03-22T13:50:54;18.83;;;8.82;;
24337;SDS011;12457;50.832;4.346;2024-03-22T13:53:20;20.27;;;8.85;;
24337;SDS011;12457;50.832;4.346;2024-03-22T13:55:49;24.17;;;10.18;;
24337;SDS011;12457;50.832;4.346;2024-03-22T13:58:18;14.68;;;9.27;;
24337;SDS011;12457;50.832;4.346;2024-03-22T14:00:44;18.80;;;9.10;;
24337;SDS011;12457;50.832;4.346;2024-03-22T14:03:25;24.13;;;10.55;;
24337;SDS011;12457;50.832;4.346;2024-03-22T14:05:51;20.10;;;10.07;;
24337;SDS011;12457;50.832;4.346;2024-03-22T14:08:17;23.08;;;9.57;;
24337;SDS011;12457;50.832;4.346;2024-03-22T14:10:42;21.67;;;9.23;;
24337;SDS011;12457;50.832;4.346;2024-03-22T14:13:08;22.83;;;10.27;;
24337;SDS011;12457;50.832;4.346;2024-03-22T14:15:34;24.40;;;10.15;;
24337;SDS011;12457;50.832;4.346;2024-03-22T14:18:00;18.00;;;8.85;;
24337;SDS011;12457;50.832;4.346;2024-03-22T14:20:26;21.83;;;8.35;;
24337;SDS011;12457;50.832;4.346;2024-03-22T14:22:54;22.77;;;8.00;;
24337;SDS011;12457;50.832;4.346;2024-03-22T14:25:19;18.63;;;8.00;;
24337;SDS011;12457;50.832;4.346;2024-03-22T14:27:45;22.67;;;8.27;;